Time;durP1;ratioP1;P1;durP2;ratioP2;P2;SDS_P1;SDS_P2;PMS_P1;PMS_P2;Temp;Humidity;BMP_temperature;BMP_pressure;BME280_temperature;BME280_humidity;BME280_pressure;Samples;Min_cycle;Max_cycle;Signal;HPM_P1;HPM_P2
2020/12/06 00:01:01;;;;;;;26.45;20.38;;;5.30;99.90;;;;;;5023626;28;20211;-82
2020/12/06 00:03:27;;;;;;;31.58;20.83;;;5.30;99.90;;;;;;5022982;28;20774;-80
2020/12/06 00:05:55;;;;;;;30.75;20.63;;;5.20;99.90;;;;;;5019931;28;20251;-81
2020/12/06 00:08:22;;;;;;;31.60;21.08;;;5.20;99.90;;;;;;5019839;28;20701;-81
2020/12/06 00:10:49;;;;;;;28.80;20.10;;;5.20;99.90;;;;;;5019887;28;20678;-80
2020/12/06 00:13:15;;;;;;;32.75;20.05;;;5.20;99.90;;;;;;5022272;28;20224;-80
2020/12/06 00:15:41;;;;;;;33.10;22.08;;;5.20;99.90;;;;;;5024335;28;20232;-80
2020/12/06 00:18:08;;;;;;;33.15;22.20;;;5.20;99.90;;;;;;5022829;28;20310;-80
2020/12/06 00:20:34;;;;;;;30.15;23.38;;;5.10;99.90;;;;;;5023576;28;20232;-78
2020/12/06 00:23:01;;;;;;;28.55;21.23;;;5.10;99.90;;;;;;5048250;22;20289;-84
2020/12/06 00:25:28;;;;;;;33.80;22.20;;;5.10;99.90;;;;;;5036952;28;20251;-85
2020/12/06 00:27:54;;;;;;;33.45;22.65;;;5.10;99.90;;;;;;5035638;28;20215;-84
2020/12/06 00:30:21;;;;;;;37.75;24.98;;;5.00;99.90;;;;;;5035957;28;20204;-83
2020/12/06 00:32:48;;;;;;;38.15;23.08;;;5.10;99.90;;;;;;5035320;28;20252;-84
2020/12/06 00:35:14;;;;;;;31.55;23.67;;;5.00;99.90;;;;;;5034625;28;20204;-84
2020/12/06 00:37:44;;;;;;;37.78;25.10;;;5.10;99.90;;;;;;5027927;28;20247;-84
2020/12/06 00:40:14;;;;;;;34.08;24.98;;;5.00;99.90;;;;;;5029117;28;20228;-84
2020/12/06 00:42:42;;;;;;;30.77;22.23;;;5.00;99.90;;;;;;5025845;28;20311;-84
2020/12/06 00:45:08;;;;;;;34.70;25.50;;;5.10;99.90;;;;;;5026523;28;20231;-84
2020/12/06 00:47:36;;;;;;;36.58;23.35;;;5.00;99.90;;;;;;5026745;28;20239;-85
2020/12/06 00:50:04;;;;;;;31.38;23.75;;;5.00;99.90;;;;;;5025130;28;20196;-84
2020/12/06 00:52:30;;;;;;;40.50;25.33;;;5.00;99.90;;;;;;5024622;28;20224;-84
2020/12/06 00:54:57;;;;;;;38.95;26.55;;;5.00;99.90;;;;;;5024282;28;20627;-83
2020/12/06 00:57:23;;;;;;;36.88;25.50;;;5.00;99.90;;;;;;5023587;28;20211;-84
2020/12/06 00:59:50;;;;;;;42.20;26.73;;;5.10;99.90;;;;;;5023766;28;20215;-84
2020/12/06 01:02:17;;;;;;;40.17;25.48;;;5.00;99.90;;;;;;5024789;28;20208;-84
2020/12/06 01:04:44;;;;;;;36.05;26.40;;;5.00;99.90;;;;;;5023676;28;20271;-84
2020/12/06 01:07:12;;;;;;;47.60;28.90;;;5.00;99.90;;;;;;5024419;28;20260;-83
2020/12/06 01:09:38;;;;;;;42.08;28.77;;;5.00;99.90;;;;;;5028897;28;20227;-84
2020/12/06 01:12:05;;;;;;;40.08;27.05;;;4.80;99.90;;;;;;5036729;28;20223;-83
2020/12/06 01:14:31;;;;;;;39.60;27.33;;;4.80;99.90;;;;;;5030074;28;20215;-83
2020/12/06 01:16:59;;;;;;;40.10;27.92;;;4.80;99.90;;;;;;5025443;28;20581;-84
2020/12/06 01:19:26;;;;;;;44.03;28.13;;;4.80;99.90;;;;;;5026337;28;20657;-84
2020/12/06 01:21:53;;;;;;;42.38;29.25;;;4.70;99.90;;;;;;5028159;28;20286;-84
2020/12/06 01:24:19;;;;;;;41.03;26.98;;;4.70;99.90;;;;;;5025654;28;20295;-84
2020/12/06 01:26:46;;;;;;;43.20;28.30;;;4.80;99.90;;;;;;5026261;28;20299;-84
2020/12/06 01:29:13;;;;;;;40.30;26.90;;;4.70;99.90;;;;;;5026041;28;20231;-84
2020/12/06 01:31:44;;;;;;;38.03;28.15;;;4.80;99.90;;;;;;5031281;28;20204;-84
2020/12/06 01:34:11;;;;;;;44.55;28.77;;;4.70;99.90;;;;;;5035948;28;20225;-84
2020/12/06 01:36:37;;;;;;;43.92;28.08;;;4.60;99.90;;;;;;5038214;28;20295;-83
2020/12/06 01:39:04;;;;;;;42.08;28.55;;;4.60;99.90;;;;;;5029930;28;20247;-84
2020/12/06 01:41:30;;;;;;;42.75;28.48;;;4.60;99.90;;;;;;5025374;28;20227;-84
2020/12/06 01:43:57;;;;;;;46.13;30.05;;;4.50;99.90;;;;;;5022595;28;20224;-84
2020/12/06 01:46:24;;;;;;;42.88;29.88;;;4.50;99.90;;;;;;5023822;28;20299;-84
2020/12/06 01:48:52;;;;;;;47.97;32.30;;;4.50;99.90;;;;;;5026654;28;20215;-83
2020/12/06 01:51:21;;;;;;;45.97;30.23;;;4.50;99.90;;;;;;5021485;28;20205;-84
2020/12/06 01:53:49;;;;;;;46.17;30.20;;;4.40;99.90;;;;;;5021219;28;20252;-84
2020/12/06 01:56:16;;;;;;;44.63;30.45;;;4.40;99.90;;;;;;5021395;28;20200;-83
2020/12/06 01:58:42;;;;;;;48.55;31.70;;;4.40;99.90;;;;;;5022110;28;20236;-83
2020/12/06 02:01:09;;;;;;;41.17;29.27;;;4.40;99.90;;;;;;5020494;28;20295;-83
2020/12/06 02:03:35;;;;;;;43.88;28.98;;;4.50;99.90;;;;;;5027210;28;20209;-83
2020/12/06 02:06:03;;;;;;;44.60;30.17;;;4.50;99.90;;;;;;5035741;28;20208;-83
2020/12/06 02:08:30;;;;;;;48.83;29.80;;;4.40;99.90;;;;;;5035153;28;20200;-83
2020/12/06 02:10:57;;;;;;;46.30;30.10;;;4.40;99.90;;;;;;5035055;28;20224;-83
2020/12/06 02:13:25;;;;;;;54.08;32.53;;;4.40;99.90;;;;;;5034940;28;20243;-84
2020/12/06 02:15:52;;;;;;;42.75;28.83;;;4.40;99.90;;;;;;5028584;28;20683;-83
2020/12/06 02:18:18;;;;;;;44.28;29.00;;;4.30;99.90;;;;;;5026259;28;20209;-84
2020/12/06 02:20:46;;;;;;;46.28;30.85;;;4.30;99.90;;;;;;5025155;28;20295;-83
2020/12/06 02:23:12;;;;;;;47.70;29.45;;;4.40;99.90;;;;;;5024434;28;20252;-83
2020/12/06 02:25:39;;;;;;;42.15;29.95;;;4.40;99.90;;;;;;5024129;28;20315;-83
2020/12/06 02:28:07;;;;;;;48.63;28.77;;;4.40;99.90;;;;;;5022706;28;20235;-83
2020/12/06 02:30:35;;;;;;;49.10;31.38;;;4.40;99.90;;;;;;5024896;28;20212;-83
2020/12/06 02:33:03;;;;;;;47.00;30.40;;;4.40;99.90;;;;;;5023444;28;20308;-84
2020/12/06 02:35:30;;;;;;;49.28;29.45;;;4.40;99.90;;;;;;5023568;28;20231;-84
2020/12/06 02:37:57;;;;;;;45.90;30.67;;;4.50;99.90;;;;;;5023579;28;20571;-84
2020/12/06 02:40:23;;;;;;;46.03;29.58;;;4.60;99.90;;;;;;5023534;28;20295;-84
2020/12/06 02:42:50;;;;;;;44.03;27.70;;;4.60;99.90;;;;;;5030628;28;20288;-83
2020/12/06 02:45:16;;;;;;;38.15;26.92;;;4.60;99.90;;;;;;5030767;28;20311;-84
2020/12/06 02:47:42;;;;;;;42.38;25.17;;;4.60;99.90;;;;;;5026977;28;20267;-84
2020/12/06 02:50:09;;;;;;;48.22;30.05;;;4.60;99.90;;;;;;5027485;28;20214;-84
2020/12/06 02:52:35;;;;;;;44.38;26.33;;;4.60;99.90;;;;;;5023234;28;20220;-84
2020/12/06 02:55:02;;;;;;;43.28;28.77;;;4.70;99.90;;;;;;5023329;28;20287;-84
2020/12/06 02:57:29;;;;;;;36.00;26.92;;;4.70;99.90;;;;;;5022876;28;20204;-84
2020/12/06 02:59:55;;;;;;;36.72;25.65;;;4.80;99.90;;;;;;5022654;28;20208;-84
2020/12/06 03:02:21;;;;;;;42.95;27.85;;;4.80;99.90;;;;;;5023472;28;20231;-83
2020/12/06 03:04:48;;;;;;;33.75;23.85;;;4.80;99.90;;;;;;5024180;28;20196;-83
2020/12/06 03:07:15;;;;;;;43.90;25.45;;;4.90;99.90;;;;;;5023802;28;20211;-84
2020/12/06 03:09:41;;;;;;;40.83;26.63;;;4.90;99.90;;;;;;5024807;28;20208;-83
2020/12/06 03:12:09;;;;;;;36.63;25.17;;;4.90;99.90;;;;;;5023167;28;20267;-83
2020/12/06 03:14:35;;;;;;;37.35;25.15;;;4.90;99.90;;;;;;5023295;28;20204;-83
2020/12/06 03:17:01;;;;;;;38.35;24.20;;;4.90;99.90;;;;;;5022552;28;20239;-84
2020/12/06 03:19:28;;;;;;;38.60;23.88;;;4.90;99.90;;;;;;5023741;28;20625;-83
2020/12/06 03:21:54;;;;;;;38.40;24.95;;;4.90;99.90;;;;;;5026909;28;20208;-83
2020/12/06 03:24:20;;;;;;;38.65;23.40;;;4.90;99.90;;;;;;5025042;28;20228;-84
2020/12/06 03:26:47;;;;;;;35.28;25.55;;;5.00;99.90;;;;;;5025032;28;20227;-84
2020/12/06 03:29:14;;;;;;;37.13;23.92;;;5.00;99.90;;;;;;5024515;28;20204;-83
2020/12/06 03:31:40;;;;;;;32.20;22.33;;;5.00;99.90;;;;;;5026005;28;20295;-83
2020/12/06 03:34:07;;;;;;;36.55;24.65;;;5.10;99.90;;;;;;5026974;28;20238;-83
2020/12/06 03:36:33;;;;;;;36.95;23.13;;;5.10;99.90;;;;;;5025969;28;20207;-83
2020/12/06 03:38:59;;;;;;;37.22;22.58;;;5.10;99.90;;;;;;5026221;28;20287;-83
2020/12/06 03:41:26;;;;;;;33.53;23.35;;;5.20;99.90;;;;;;5025947;28;20204;-84
2020/12/06 03:43:52;;;;;;;27.38;20.90;;;5.20;99.90;;;;;;5024357;28;20224;-84
2020/12/06 03:46:19;;;;;;;29.30;21.50;;;5.20;99.90;;;;;;5021095;28;20270;-83
2020/12/06 03:48:45;;;;;;;36.22;23.83;;;5.20;99.90;;;;;;5020557;28;20288;-84
2020/12/06 03:51:12;;;;;;;29.38;22.25;;;5.30;99.90;;;;;;5020502;28;20276;-84
2020/12/06 03:53:38;;;;;;;29.02;21.63;;;5.30;99.90;;;;;;5021041;28;20315;-83
2020/12/06 03:56:04;;;;;;;35.47;22.77;;;5.30;99.90;;;;;;5021690;28;20200;-82
2020/12/06 03:58:31;;;;;;;34.47;24.33;;;5.30;99.90;;;;;;5021870;28;20208;-83
2020/12/06 04:00:57;;;;;;;32.33;22.13;;;5.30;99.90;;;;;;5023998;28;20211;-84
2020/12/06 04:03:24;;;;;;;28.48;22.00;;;5.40;99.90;;;;;;5024679;28;20231;-83
2020/12/06 04:05:50;;;;;;;32.58;21.20;;;5.40;99.90;;;;;;5025367;28;20248;-83
2020/12/06 04:08:19;;;;;;;30.50;20.75;;;5.40;99.90;;;;;;5025185;28;20584;-84
2020/12/06 04:10:45;;;;;;;33.90;21.42;;;5.40;99.90;;;;;;5027002;28;20189;-83
2020/12/06 04:13:12;;;;;;;36.80;21.25;;;5.40;99.90;;;;;;5027877;28;20300;-83
2020/12/06 04:15:38;;;;;;;28.33;20.42;;;5.40;99.90;;;;;;5037918;28;20208;-83
2020/12/06 04:18:04;;;;;;;31.27;21.85;;;5.40;99.90;;;;;;5039079;28;20224;-83
2020/12/06 04:20:32;;;;;;;36.92;21.70;;;5.30;99.90;;;;;;5038443;28;20200;-84
2020/12/06 04:22:58;;;;;;;30.50;20.88;;;5.30;99.90;;;;;;5037182;28;20232;-84
2020/12/06 04:25:25;;;;;;;32.33;22.33;;;5.40;99.90;;;;;;5036625;28;20231;-84
2020/12/06 04:27:51;;;;;;;29.63;20.83;;;5.40;99.90;;;;;;5036820;28;20236;-84
2020/12/06 04:30:17;;;;;;;32.45;21.73;;;5.40;99.90;;;;;;5037745;28;20268;-84
2020/12/06 04:32:44;;;;;;;31.40;20.83;;;5.40;99.90;;;;;;5035306;28;20262;-82
2020/12/06 04:35:10;;;;;;;34.17;21.52;;;5.30;99.90;;;;;;5033832;28;20212;-84
2020/12/06 04:37:38;;;;;;;28.65;21.88;;;5.30;99.90;;;;;;5034744;28;20219;-84
2020/12/06 04:40:05;;;;;;;27.65;20.17;;;5.40;99.90;;;;;;5035948;28;20204;-83
2020/12/06 04:42:31;;;;;;;29.42;22.50;;;5.40;99.90;;;;;;5038312;28;20243;-83
2020/12/06 04:44:58;;;;;;;30.00;20.52;;;5.30;99.90;;;;;;5038683;28;20208;-84
2020/12/06 04:47:36;;;;;;;31.63;21.02;;;5.30;99.90;;;;;;5037748;28;20211;-83
2020/12/06 04:50:04;;;;;;;30.98;20.35;;;5.30;99.90;;;;;;5037448;28;20192;-83
2020/12/06 04:52:43;;;;;;;32.72;21.45;;;5.30;99.90;;;;;;5034603;28;20240;-84
2020/12/06 04:55:13;;;;;;;28.17;20.83;;;5.30;99.90;;;;;;5033446;28;20187;-84
2020/12/06 04:57:40;;;;;;;30.40;20.92;;;5.30;99.90;;;;;;5031486;28;20208;-84
2020/12/06 05:00:08;;;;;;;25.55;20.27;;;5.30;99.90;;;;;;5029664;28;20220;-84
2020/12/06 05:02:39;;;;;;;28.95;19.73;;;5.30;99.90;;;;;;5029603;28;20259;-84
2020/12/06 05:05:06;;;;;;;30.63;21.60;;;5.40;99.90;;;;;;5028377;28;20191;-84
2020/12/06 05:07:34;;;;;;;37.03;22.20;;;5.30;99.90;;;;;;5026816;28;20200;-84
2020/12/06 05:10:02;;;;;;;32.35;20.77;;;5.30;99.90;;;;;;5025870;28;20210;-84
2020/12/06 05:12:29;;;;;;;34.13;22.05;;;5.40;99.90;;;;;;5026471;28;20228;-84
2020/12/06 05:14:55;;;;;;;28.75;20.00;;;5.30;99.90;;;;;;5026309;28;20648;-84
2020/12/06 05:17:21;;;;;;;28.42;19.75;;;5.30;99.90;;;;;;5026896;28;20292;-83
2020/12/06 05:19:48;;;;;;;32.85;21.45;;;5.30;99.90;;;;;;5026872;28;20208;-84
2020/12/06 05:22:14;;;;;;;29.50;20.42;;;5.30;99.90;;;;;;5026352;28;20231;-83
2020/12/06 05:24:42;;;;;;;33.08;20.60;;;5.40;99.90;;;;;;5026211;28;20192;-84
2020/12/06 05:27:10;;;;;;;31.02;21.27;;;5.40;99.90;;;;;;5030800;28;20232;-84
2020/12/06 05:29:42;;;;;;;34.80;21.45;;;5.30;99.90;;;;;;5025413;28;20223;-83
2020/12/06 05:32:10;;;;;;;31.08;21.05;;;5.30;99.90;;;;;;5024339;28;20688;-84
2020/12/06 05:34:39;;;;;;;29.13;20.63;;;5.30;99.90;;;;;;5025472;28;20204;-84
2020/12/06 05:37:06;;;;;;;29.40;20.17;;;5.30;99.90;;;;;;5026110;28;20187;-84
2020/12/06 05:39:32;;;;;;;32.25;22.00;;;5.30;99.90;;;;;;5024806;28;20204;-84
2020/12/06 05:42:00;;;;;;;30.02;19.80;;;5.30;99.90;;;;;;5025161;28;20216;-83
2020/12/06 05:44:27;;;;;;;36.85;21.60;;;5.30;99.90;;;;;;5029883;28;20283;-84
2020/12/06 05:46:54;;;;;;;33.13;20.45;;;5.30;99.90;;;;;;5025945;28;20244;-84
2020/12/06 05:49:23;;;;;;;29.13;20.42;;;5.40;99.90;;;;;;5026955;28;20204;-84
2020/12/06 05:51:53;;;;;;;30.58;20.05;;;5.40;99.90;;;;;;5028380;28;20200;-84
2020/12/06 05:54:23;;;;;;;29.63;20.10;;;5.30;99.90;;;;;;5029570;28;20236;-84
2020/12/06 05:56:53;;;;;;;37.00;22.20;;;5.30;99.90;;;;;;5031216;28;20224;-84
2020/12/06 05:59:22;;;;;;;32.90;21.38;;;5.30;99.90;;;;;;5030443;28;20213;-84
2020/12/06 06:01:52;;;;;;;33.50;22.92;;;5.30;99.90;;;;;;5030988;28;20219;-84
2020/12/06 06:04:21;;;;;;;31.23;22.55;;;5.40;99.90;;;;;;5028008;28;20678;-84
2020/12/06 06:06:50;;;;;;;31.17;21.30;;;5.40;99.90;;;;;;5031494;28;20224;-84
2020/12/06 06:09:21;;;;;;;32.60;21.70;;;5.40;99.90;;;;;;5024106;28;20239;-84
2020/12/06 06:11:56;;;;;;;30.42;20.15;;;5.40;99.90;;;;;;5024198;28;20193;-85
2020/12/06 06:14:23;;;;;;;29.85;23.10;;;5.40;99.90;;;;;;5022656;28;20435;-83
2020/12/06 06:16:51;;;;;;;28.20;20.40;;;5.40;99.90;;;;;;5023171;28;20672;-83
2020/12/06 06:19:22;;;;;;;33.80;23.35;;;5.40;99.90;;;;;;5020392;28;20227;-83
2020/12/06 06:21:49;;;;;;;31.58;21.50;;;5.50;99.90;;;;;;5019362;28;20195;-84
2020/12/06 06:24:23;;;;;;;32.50;21.08;;;5.50;99.90;;;;;;5037984;22;20224;-77
2020/12/06 06:26:51;;;;;;;34.92;23.23;;;5.50;99.90;;;;;;5013759;28;20208;-77
2020/12/06 06:29:19;;;;;;;30.00;20.20;;;5.50;99.90;;;;;;5013910;28;20209;-77
2020/12/06 06:31:48;;;;;;;30.98;21.77;;;5.50;99.90;;;;;;5015568;28;20208;-77
2020/12/06 06:34:15;;;;;;;28.40;20.20;;;5.50;99.90;;;;;;5016833;28;20228;-76
2020/12/06 06:36:44;;;;;;;32.75;21.20;;;5.60;99.90;;;;;;5017439;28;20688;-77
2020/12/06 06:39:10;;;;;;;30.17;20.33;;;5.60;99.90;;;;;;5015742;28;20681;-76
2020/12/06 06:41:36;;;;;;;34.25;21.77;;;5.60;99.90;;;;;;5015975;28;20208;-76
2020/12/06 06:44:04;;;;;;;28.80;18.67;;;5.50;99.90;;;;;;5015471;28;20227;-77
2020/12/06 06:46:32;;;;;;;35.28;21.92;;;5.50;99.90;;;;;;5015069;28;20220;-76
2020/12/06 06:49:07;;;;;;;30.38;20.67;;;5.60;99.90;;;;;;5014799;28;20200;-75
2020/12/06 06:51:34;;;;;;;30.42;21.60;;;5.60;99.90;;;;;;5015078;28;20188;-76
2020/12/06 06:54:05;;;;;;;33.45;21.90;;;5.60;99.90;;;;;;5015232;28;20224;-76
2020/12/06 06:56:36;;;;;;;27.08;19.55;;;5.70;99.90;;;;;;5016113;28;20185;-76
2020/12/06 06:59:04;;;;;;;28.63;19.52;;;5.70;99.90;;;;;;5015137;28;20645;-76
2020/12/06 07:01:30;;;;;;;29.45;19.95;;;5.80;99.90;;;;;;5015845;28;20208;-77
2020/12/06 07:03:56;;;;;;;26.30;19.10;;;5.80;99.90;;;;;;5014816;28;20220;-77
2020/12/06 07:06:46;;;;;;;30.30;19.65;;;5.80;99.90;;;;;;5015206;28;20231;-77
2020/12/06 07:09:14;;;;;;;25.60;17.92;;;5.80;99.90;;;;;;5014942;28;20300;-77
2020/12/06 07:11:41;;;;;;;27.92;18.70;;;5.80;99.90;;;;;;5015129;28;20211;-77
2020/12/06 07:14:09;;;;;;;30.98;20.25;;;5.80;99.90;;;;;;5014838;28;20494;-77
2020/12/06 07:16:35;;;;;;;29.92;19.35;;;5.90;99.90;;;;;;5015021;28;20223;-77
2020/12/06 07:19:01;;;;;;;29.30;21.10;;;5.90;99.90;;;;;;5014124;28;20440;-77
2020/12/06 07:21:35;;;;;;;28.08;19.33;;;5.90;99.90;;;;;;5015783;28;20210;-77
2020/12/06 07:24:04;;;;;;;24.85;19.40;;;5.90;99.90;;;;;;5014519;28;20238;-77
2020/12/06 07:26:32;;;;;;;26.92;17.90;;;6.00;99.90;;;;;;5014942;28;20735;-76
2020/12/06 07:28:59;;;;;;;27.13;18.80;;;6.00;99.90;;;;;;5014812;28;20204;-76
2020/12/06 07:31:26;;;;;;;24.45;18.50;;;6.00;99.90;;;;;;5015463;28;20299;-77
2020/12/06 07:33:52;;;;;;;33.10;18.42;;;6.10;99.90;;;;;;5015370;28;20262;-77
2020/12/06 07:36:19;;;;;;;28.20;20.70;;;6.10;99.90;;;;;;5015151;28;20206;-77
2020/12/06 07:38:45;;;;;;;26.17;17.83;;;6.20;99.90;;;;;;5015439;28;20204;-77
2020/12/06 07:41:12;;;;;;;24.10;17.15;;;6.20;99.90;;;;;;5015124;28;20311;-77
2020/12/06 07:43:39;;;;;;;24.90;18.25;;;6.20;99.90;;;;;;5015135;28;20238;-77
2020/12/06 07:46:13;;;;;;;24.73;18.27;;;6.30;99.90;;;;;;5014947;28;20240;-77
2020/12/06 07:48:40;;;;;;;24.92;18.98;;;6.30;99.90;;;;;;5015104;28;20207;-78
2020/12/06 07:51:06;;;;;;;24.60;17.80;;;6.30;99.90;;;;;;5015625;28;20204;-77
2020/12/06 07:53:47;;;;;;;26.83;18.50;;;6.30;99.90;;;;;;5014354;28;20229;-77
2020/12/06 07:56:18;;;;;;;22.63;17.08;;;6.40;99.90;;;;;;5015387;28;20260;-77
2020/12/06 07:58:58;;;;;;;23.38;17.23;;;6.40;99.90;;;;;;5015075;28;20621;-77
2020/12/06 08:01:26;;;;;;;23.38;16.40;;;6.40;99.90;;;;;;5015223;28;20224;-77
2020/12/06 08:03:54;;;;;;;20.33;17.10;;;6.50;99.90;;;;;;5014949;28;20263;-77
2020/12/06 08:06:23;;;;;;;23.20;16.30;;;6.50;99.90;;;;;;5015182;28;20212;-76
2020/12/06 08:08:52;;;;;;;21.30;16.48;;;6.50;99.90;;;;;;5018228;28;20299;-76
2020/12/06 08:11:20;;;;;;;21.13;16.45;;;6.50;99.90;;;;;;5018508;28;20240;-77
2020/12/06 08:13:50;;;;;;;22.57;16.23;;;6.60;99.90;;;;;;5018340;28;20477;-76
2020/12/06 08:16:18;;;;;;;25.30;19.02;;;6.60;99.90;;;;;;5018677;28;20578;-76
2020/12/06 08:18:44;;;;;;;23.70;15.93;;;6.60;99.90;;;;;;5018272;28;20216;-78
2020/12/06 08:21:11;;;;;;;23.00;15.30;;;6.70;99.90;;;;;;5020368;28;20205;-77
2020/12/06 08:23:39;;;;;;;21.77;15.38;;;6.80;99.90;;;;;;5017742;28;20224;-76
2020/12/06 08:26:06;;;;;;;20.48;15.55;;;6.80;99.90;;;;;;5018453;28;20232;-77
2020/12/06 08:28:33;;;;;;;20.75;15.32;;;6.80;99.90;;;;;;5018476;28;20231;-77
2020/12/06 08:30:59;;;;;;;23.70;17.27;;;6.80;99.90;;;;;;5018995;28;20205;-78
2020/12/06 08:33:27;;;;;;;20.58;15.20;;;6.80;99.90;;;;;;5019039;28;20224;-77
2020/12/06 08:35:56;;;;;;;22.33;17.38;;;6.80;99.90;;;;;;5017609;28;20438;-77
2020/12/06 08:38:24;;;;;;;17.38;14.60;;;6.80;99.90;;;;;;5017990;28;20653;-77
2020/12/06 08:41:05;;;;;;;21.02;16.05;;;6.80;99.90;;;;;;5017885;28;20279;-78
2020/12/06 08:43:47;;;;;;;20.40;15.77;;;6.80;99.90;;;;;;5018271;28;20278;-77
2020/12/06 08:46:15;;;;;;;18.77;13.77;;;6.80;99.90;;;;;;5018252;28;20708;-77
2020/12/06 08:48:42;;;;;;;23.23;14.82;;;6.80;99.90;;;;;;5017819;28;20208;-78
2020/12/06 08:51:23;;;;;;;20.75;14.07;;;6.80;99.90;;;;;;5017963;28;20465;-77
2020/12/06 08:53:50;;;;;;;21.92;15.63;;;6.80;99.90;;;;;;5015927;28;20445;-78
2020/12/06 08:56:31;;;;;;;18.52;14.88;;;6.90;99.90;;;;;;5017614;28;20200;-78
2020/12/06 08:59:03;;;;;;;23.10;16.20;;;7.00;99.90;;;;;;5018256;28;20641;-78
2020/12/06 09:01:29;;;;;;;22.40;14.77;;;7.00;99.90;;;;;;5018196;28;20199;-79
2020/12/06 09:03:56;;;;;;;20.40;16.30;;;7.00;99.90;;;;;;5019740;28;20324;-79
2020/12/06 09:06:22;;;;;;;20.38;15.00;;;7.10;99.90;;;;;;5018725;28;20228;-78
2020/12/06 09:08:49;;;;;;;18.83;15.00;;;7.10;99.90;;;;;;5016648;28;20215;-78
2020/12/06 09:11:16;;;;;;;22.50;15.32;;;7.10;99.90;;;;;;5017187;28;20211;-77
2020/12/06 09:13:43;;;;;;;18.90;15.23;;;7.20;99.90;;;;;;5018043;28;20232;-77
2020/12/06 09:16:11;;;;;;;21.90;15.60;;;7.20;99.90;;;;;;5017547;28;20200;-77
2020/12/06 09:18:38;;;;;;;18.08;13.80;;;7.20;99.90;;;;;;5018110;28;20209;-78
2020/12/06 09:21:04;;;;;;;17.83;13.63;;;7.20;99.90;;;;;;5018074;28;20300;-79
2020/12/06 09:23:31;;;;;;;20.10;15.27;;;7.20;99.90;;;;;;5017811;28;20266;-78
2020/12/06 09:25:59;;;;;;;20.70;14.07;;;7.30;99.90;;;;;;5019255;28;20224;-78
2020/12/06 09:28:26;;;;;;;19.75;14.02;;;7.30;99.90;;;;;;5020077;28;20250;-78
2020/12/06 09:30:52;;;;;;;21.02;14.95;;;7.30;99.90;;;;;;5020743;28;20764;-78
2020/12/06 09:33:20;;;;;;;19.88;13.90;;;7.30;99.90;;;;;;5018568;28;20232;-77
2020/12/06 09:35:46;;;;;;;18.25;14.32;;;7.40;99.90;;;;;;5017918;28;20295;-77
2020/12/06 09:38:13;;;;;;;18.65;14.25;;;7.40;99.90;;;;;;5018568;28;20299;-78
2020/12/06 09:40:39;;;;;;;20.90;14.77;;;7.50;99.90;;;;;;5018274;28;20204;-78
2020/12/06 09:43:06;;;;;;;19.00;15.10;;;7.50;99.90;;;;;;5018943;28;20246;-79
2020/12/06 09:45:33;;;;;;;19.80;15.30;;;7.60;99.90;;;;;;5020199;28;20204;-78
2020/12/06 09:47:59;;;;;;;18.58;14.57;;;7.60;99.90;;;;;;5020341;28;20205;-79
2020/12/06 09:50:26;;;;;;;24.10;15.55;;;7.60;99.90;;;;;;5018768;28;20236;-78
2020/12/06 09:52:53;;;;;;;19.80;15.60;;;7.70;99.90;;;;;;5015996;28;20784;-78
2020/12/06 09:55:19;;;;;;;18.85;15.10;;;7.80;99.90;;;;;;5017199;28;20439;-77
2020/12/06 09:57:45;;;;;;;19.73;15.68;;;7.80;99.90;;;;;;5018624;28;20204;-79
2020/12/06 10:00:12;;;;;;;16.95;13.68;;;7.90;99.90;;;;;;5018849;28;20185;-78
2020/12/06 10:02:38;;;;;;;18.92;16.02;;;7.90;99.90;;;;;;5016755;28;20577;-78
2020/12/06 10:05:05;;;;;;;19.23;14.30;;;8.00;99.90;;;;;;5017526;28;20639;-78
2020/12/06 10:07:32;;;;;;;19.98;14.15;;;8.10;99.90;;;;;;5019019;28;20220;-78
2020/12/06 10:09:58;;;;;;;18.75;14.70;;;8.20;99.90;;;;;;5019550;28;20236;-79
2020/12/06 10:12:24;;;;;;;19.67;14.38;;;8.30;99.90;;;;;;5021253;28;20723;-78
2020/12/06 10:14:51;;;;;;;15.98;13.15;;;8.40;99.90;;;;;;5019648;28;20208;-78
2020/12/06 10:17:18;;;;;;;17.50;14.55;;;8.40;99.90;;;;;;5016157;28;20216;-77
2020/12/06 10:19:44;;;;;;;17.55;13.30;;;8.50;99.90;;;;;;5015984;28;20289;-78
2020/12/06 10:22:10;;;;;;;18.80;13.50;;;8.60;99.90;;;;;;5018099;28;20235;-79
2020/12/06 10:24:37;;;;;;;21.23;14.80;;;8.70;99.90;;;;;;5015624;28;20232;-78
2020/12/06 10:27:04;;;;;;;24.88;13.32;;;8.80;99.90;;;;;;5016238;28;20487;-78
2020/12/06 10:29:30;;;;;;;15.80;13.38;;;8.90;99.90;;;;;;5017580;28;20223;-79
2020/12/06 10:31:58;;;;;;;18.10;13.33;;;9.00;99.90;;;;;;5030544;28;20184;-79
2020/12/06 10:34:25;;;;;;;14.82;12.60;;;9.00;99.90;;;;;;5036308;28;20472;-79
2020/12/06 10:36:52;;;;;;;14.67;12.87;;;9.10;99.90;;;;;;5035012;28;20223;-79
2020/12/06 10:39:20;;;;;;;16.88;12.85;;;9.20;99.90;;;;;;5035907;28;20507;-78
2020/12/06 10:41:48;;;;;;;18.27;12.67;;;9.30;99.90;;;;;;5023044;28;20219;-80
2020/12/06 10:44:14;;;;;;;20.13;12.90;;;9.30;99.90;;;;;;5019392;28;20995;-80
2020/12/06 10:46:40;;;;;;;17.77;14.10;;;9.40;99.90;;;;;;5021860;28;20485;-78
2020/12/06 10:49:07;;;;;;;15.77;12.57;;;9.40;99.90;;;;;;5021918;28;20534;-79
2020/12/06 10:51:33;;;;;;;17.87;13.20;;;9.50;99.90;;;;;;5022489;28;20542;-80
2020/12/06 10:54:00;;;;;;;17.60;12.43;;;9.60;99.90;;;;;;5022355;28;20471;-78
2020/12/06 10:56:27;;;;;;;16.00;13.07;;;9.70;99.90;;;;;;5020535;28;20491;-79
2020/12/06 10:58:55;;;;;;;13.73;11.40;;;9.70;99.90;;;;;;5022391;28;20447;-80
2020/12/06 11:01:26;;;;;;;16.90;12.77;;;9.70;99.90;;;;;;5023327;28;20455;-80
2020/12/06 11:03:52;;;;;;;15.33;12.70;;;9.70;99.90;;;;;;5022939;28;20475;-79
2020/12/06 11:06:22;;;;;;;17.00;12.40;;;9.70;99.90;;;;;;5036224;28;20494;-78
2020/12/06 11:08:49;;;;;;;14.67;12.43;;;9.80;99.90;;;;;;5034167;28;20482;-80
2020/12/06 11:11:16;;;;;;;16.53;12.80;;;9.80;99.90;;;;;;5034523;28;20459;-78
2020/12/06 11:13:42;;;;;;;16.27;13.07;;;9.90;99.90;;;;;;5034100;28;20554;-78
2020/12/06 11:16:10;;;;;;;13.30;11.20;;;10.00;99.90;;;;;;5029889;28;20443;-78
2020/12/06 11:18:36;;;;;;;16.43;11.87;;;10.00;99.90;;;;;;5025225;28;20515;-80
2020/12/06 11:21:03;;;;;;;12.93;11.13;;;10.00;99.90;;;;;;5025848;28;20429;-79
2020/12/06 11:23:29;;;;;;;14.10;11.57;;;10.10;99.90;;;;;;5023163;28;20485;-79
2020/12/06 11:25:55;;;;;;;15.40;12.50;;;10.10;99.90;;;;;;5031292;28;20505;-78
2020/12/06 11:28:22;;;;;;;15.90;12.03;;;10.20;99.90;;;;;;5035223;28;20435;-79
2020/12/06 11:30:48;;;;;;;14.90;12.40;;;10.20;99.90;;;;;;5036283;28;20410;-78
2020/12/06 11:33:15;;;;;;;15.30;13.27;;;10.20;99.90;;;;;;5036849;28;20534;-81
2020/12/06 11:35:42;;;;;;;19.10;12.50;;;10.20;99.90;;;;;;5035140;28;20514;-78
2020/12/06 11:38:09;;;;;;;16.93;12.13;;;10.20;99.90;;;;;;5035215;28;20511;-79
2020/12/06 11:40:36;;;;;;;16.87;12.83;;;10.20;99.90;;;;;;5036121;28;20451;-78
2020/12/06 11:43:02;;;;;;;16.50;11.60;;;10.30;99.90;;;;;;5040130;28;20430;-79
2020/12/06 11:45:28;;;;;;;18.77;12.40;;;10.30;99.90;;;;;;5038301;28;20494;-78
2020/12/06 11:47:55;;;;;;;13.33;11.90;;;10.30;99.90;;;;;;5040143;28;20502;-78
2020/12/06 11:50:23;;;;;;;17.77;14.47;;;10.30;99.90;;;;;;5039926;28;20458;-78
2020/12/06 11:52:49;;;;;;;24.50;18.90;;;10.20;99.90;;;;;;5038802;28;20522;-77
2020/12/06 11:55:15;;;;;;;20.20;12.03;;;10.20;99.90;;;;;;5039550;28;20506;-79
2020/12/06 11:57:41;;;;;;;15.03;10.50;;;10.30;99.90;;;;;;5037724;28;20506;-79
2020/12/06 12:00:09;;;;;;;13.43;11.17;;;10.40;99.90;;;;;;5031263;28;20514;-79
2020/12/06 12:02:35;;;;;;;13.03;10.80;;;10.40;99.90;;;;;;5032702;28;20583;-78
2020/12/06 12:05:01;;;;;;;16.23;11.60;;;10.50;99.90;;;;;;5036961;28;20435;-78
2020/12/06 12:07:29;;;;;;;11.87;10.27;;;10.50;99.90;;;;;;5037314;28;20463;-78
2020/12/06 12:09:55;;;;;;;16.20;10.70;;;10.50;99.90;;;;;;5036223;28;20538;-80
2020/12/06 12:12:21;;;;;;;13.23;11.77;;;10.50;99.90;;;;;;5025108;28;20811;-78
2020/12/06 12:14:48;;;;;;;13.90;10.77;;;10.60;99.90;;;;;;5027476;28;20450;-79
2020/12/06 12:17:14;;;;;;;16.50;13.23;;;10.60;99.90;;;;;;5027806;28;20919;-79
2020/12/06 12:19:40;;;;;;;13.37;11.30;;;10.60;99.90;;;;;;5023152;28;20466;-80
2020/12/06 12:22:06;;;;;;;11.73;10.53;;;10.70;99.90;;;;;;5022805;28;20522;-79
2020/12/06 12:24:34;;;;;;;12.87;11.20;;;10.70;99.90;;;;;;5035408;22;20509;-79
2020/12/06 12:27:01;;;;;;;13.20;11.90;;;10.70;99.90;;;;;;5019065;28;20489;-76
2020/12/06 12:29:28;;;;;;;13.30;10.63;;;10.70;99.90;;;;;;5020617;28;20451;-78
2020/12/06 12:31:54;;;;;;;17.07;11.47;;;10.70;99.90;;;;;;5019928;28;20443;-77
2020/12/06 12:34:21;;;;;;;17.03;12.50;;;10.70;99.90;;;;;;5018695;28;20471;-79
2020/12/06 12:36:47;;;;;;;13.10;10.90;;;10.70;99.90;;;;;;5019002;28;20776;-79